Time;durP1;ratioP1;P1;durP2;ratioP2;P2;SDS_P1;SDS_P2;PMS_P1;PMS_P2;Temp;Humidity;BMP_temperature;BMP_pressure;BME280_temperature;BME280_humidity;BME280_pressure;Samples;Min_cycle;Max_cycle;Signal;HPM_P1;HPM_P2
2022/03/08 00:02:50;;;;;;;2.55;1.35;;;;;;;19.95;39.68;97458.84;10105161;29;20086;-57
2022/03/08 00:08:10;;;;;;;2.08;1.20;;;;;;;19.93;39.63;97464.56;10104925;29;20037;-57
2022/03/08 00:13:30;;;;;;;2.05;1.27;;;;;;;19.92;39.75;97462.19;10111710;29;20369;-57
2022/03/08 00:18:49;;;;;;;1.75;1.10;;;;;;;19.88;39.49;97464.69;10116975;29;20069;-57
2022/03/08 00:24:10;;;;;;;1.67;1.10;;;;;;;19.87;39.54;97459.59;10106633;29;20057;-57
2022/03/08 00:29:29;;;;;;;2.08;1.30;;;;;;;19.87;39.74;97446.88;10110127;29;20052;-57
2022/03/08 00:34:49;;;;;;;2.30;1.38;;;;;;;19.86;39.67;97449.91;10108321;29;20060;-57
2022/03/08 00:40:10;;;;;;;2.28;1.10;;;;;;;19.84;39.51;97444.00;10119627;29;20057;-57
2022/03/08 00:45:31;;;;;;;1.75;1.05;;;;;;;19.81;39.57;97440.00;10107359;29;20064;-57
2022/03/08 00:50:50;;;;;;;2.20;1.10;;;;;;;19.79;39.48;97427.91;10105200;29;20420;-57
2022/03/08 00:56:10;;;;;;;2.45;1.35;;;;;;;19.78;39.54;97437.94;10106029;29;20056;-57
2022/03/08 01:01:29;;;;;;;2.08;1.20;;;;;;;19.76;39.55;97429.34;10105308;29;20064;-56
2022/03/08 01:06:49;;;;;;;1.20;1.10;;;;;;;19.75;39.52;97427.72;10105633;29;20464;-57
2022/03/08 01:12:09;;;;;;;2.13;1.38;;;;;;;19.72;39.44;97433.78;10101664;29;20045;-57
2022/03/08 01:17:29;;;;;;;2.38;1.20;;;;;;;19.70;39.56;97430.53;10092379;29;20053;-57
2022/03/08 01:22:49;;;;;;;1.95;1.10;;;;;;;19.69;39.35;97426.22;10099261;29;20049;-57
2022/03/08 01:28:10;;;;;;;1.52;1.20;;;;;;;19.67;39.48;97423.84;10102081;29;20045;-57
2022/03/08 01:33:29;;;;;;;1.42;1.27;;;;;;;19.65;39.48;97417.94;10098146;29;20057;-57
2022/03/08 01:38:49;;;;;;;1.65;1.25;;;;;;;19.63;39.34;97413.97;10098805;29;20052;-57
2022/03/08 01:44:09;;;;;;;1.55;1.10;;;;;;;19.62;39.38;97417.75;10102972;29;20049;-57
2022/03/08 01:49:29;;;;;;;1.33;1.20;;;;;;;19.60;39.36;97419.97;10094661;29;20412;-57
2022/03/08 01:54:48;;;;;;;1.58;1.25;;;;;;;19.58;39.24;97416.78;10097207;29;20069;-57
2022/03/08 02:00:11;;;;;;;1.85;1.00;;;;;;;19.56;39.15;97422.50;10097880;29;20053;-57
2022/03/08 02:05:35;;;;;;;2.08;1.20;;;;;;;19.54;39.21;97412.00;10106027;29;20056;-58
2022/03/08 02:10:54;;;;;;;1.73;1.08;;;;;;;19.51;39.09;97404.50;10096124;29;20109;-57
2022/03/08 02:16:14;;;;;;;1.70;1.13;;;;;;;19.51;39.22;97401.81;10096968;29;20048;-57
2022/03/08 02:21:35;;;;;;;1.85;0.90;;;;;;;19.49;39.29;97409.44;10098254;29;20059;-57
2022/03/08 02:26:54;;;;;;;1.08;0.90;;;;;;;19.47;39.20;97406.22;10096504;29;20497;-57
2022/03/08 02:32:13;;;;;;;1.42;1.23;;;;;;;19.45;39.14;97397.63;10096377;29;20056;-57
2022/03/08 02:37:38;;;;;;;1.42;1.05;;;;;;;19.44;39.21;97395.25;10095868;29;20064;-57
2022/03/08 02:42:58;;;;;;;1.30;1.17;;;;;;;19.42;39.08;97394.75;10101373;29;20045;-57
2022/03/08 02:48:18;;;;;;;2.38;1.10;;;;;;;19.40;39.27;97400.47;10095874;29;20061;-56
2022/03/08 02:53:37;;;;;;;2.05;1.10;;;;;;;19.39;39.04;97389.97;10097552;29;20057;-57
2022/03/08 02:58:57;;;;;;;1.35;1.25;;;;;;;19.37;39.04;97395.69;10094936;29;20489;-57
2022/03/08 03:04:16;;;;;;;1.80;1.15;;;;;;;19.34;39.07;97394.38;10097352;29;20053;-57
2022/03/08 03:09:35;;;;;;;1.40;1.08;;;;;;;19.33;38.87;97394.72;10089399;29;20469;-56
2022/03/08 03:14:55;;;;;;;1.10;1.00;;;;;;;19.31;39.06;97400.41;10096457;29;20080;-57
2022/03/08 03:20:18;;;;;;;1.38;1.17;;;;;;;19.29;38.90;97401.84;10105631;29;20085;-57
2022/03/08 03:25:37;;;;;;;1.40;1.20;;;;;;;19.30;39.02;97403.41;10096356;29;20052;-57
2022/03/08 03:30:56;;;;;;;1.05;0.90;;;;;;;19.27;38.84;97404.84;10095924;29;20068;-57
2022/03/08 03:36:16;;;;;;;1.55;1.10;;;;;;;19.24;38.86;97413.53;10091568;29;20057;-57
2022/03/08 03:41:35;;;;;;;1.10;0.98;;;;;;;19.22;38.79;97407.66;10094787;29;20646;-57
2022/03/08 03:46:56;;;;;;;1.58;1.10;;;;;;;19.20;38.96;97401.75;10094219;29;20064;-57
2022/03/08 03:52:15;;;;;;;0.90;0.80;;;;;;;19.19;38.96;97405.59;10094432;29;20061;-57
2022/03/08 03:57:34;;;;;;;1.20;0.90;;;;;;;19.17;38.78;97405.88;10093772;29;20068;-57
2022/03/08 04:02:54;;;;;;;1.10;1.00;;;;;;;19.15;38.80;97408.09;10092795;29;20053;-56
2022/03/08 04:08:15;;;;;;;1.42;1.00;;;;;;;19.13;38.72;97410.31;10089974;29;20064;-57
2022/03/08 04:13:35;;;;;;;1.42;1.25;;;;;;;19.13;38.24;97406.78;10092259;29;20177;-57
2022/03/08 04:18:54;;;;;;;1.25;1.13;;;;;;;19.11;38.44;97406.28;10093092;29;20071;-57
2022/03/08 04:24:13;;;;;;;1.40;1.20;;;;;;;19.10;38.30;97402.00;10091933;29;20541;-57
2022/03/08 04:29:32;;;;;;;1.20;1.10;;;;;;;19.07;38.31;97398.03;10092993;29;20487;-57
2022/03/08 04:34:52;;;;;;;1.27;1.00;;;;;;;19.05;38.11;97394.84;10090175;29;20057;-57
2022/03/08 04:40:11;;;;;;;1.40;1.30;;;;;;;19.04;38.06;97398.63;10096558;29;20045;-57
2022/03/08 04:45:31;;;;;;;1.75;1.17;;;;;;;19.03;38.05;97404.31;10092835;29;20060;-57
2022/03/08 04:50:50;;;;;;;1.63;1.23;;;;;;;19.00;38.05;97392.25;10110395;29;20079;-57
2022/03/08 04:56:09;;;;;;;1.83;1.30;;;;;;;19.01;38.01;97393.81;10099611;29;20068;-57
2022/03/08 05:01:28;;;;;;;1.25;1.05;;;;;;;19.00;38.08;97408.44;10097261;29;20108;-57
2022/03/08 05:06:48;;;;;;;1.40;0.98;;;;;;;19.02;37.77;97397.34;10087438;29;20489;-57
2022/03/08 05:12:08;;;;;;;1.77;1.60;;;;;;;19.02;37.93;97406.25;10098690;29;20049;-57
2022/03/08 05:17:28;;;;;;;1.42;1.27;;;;;;;19.02;38.12;97403.53;10095116;29;20424;-57
2022/03/08 05:22:47;;;;;;;1.45;1.20;;;;;;;19.03;38.45;97407.81;10096367;29;20045;-57
2022/03/08 05:28:06;;;;;;;5.22;4.20;;;;;;;18.23;31.40;97410.06;10093090;29;20453;-56
2022/03/08 05:33:26;;;;;;;3.53;1.73;;;;;;;18.38;37.18;97412.47;10099565;29;20557;-57
2022/03/08 05:38:45;;;;;;;4.30;1.70;;;;;;;18.59;36.35;97414.72;10096283;29;20450;-57
2022/03/08 05:44:04;;;;;;;2.30;1.50;;;;;;;18.73;36.63;97425.47;10097223;29;20183;-57
2022/03/08 05:49:24;;;;;;;2.80;1.60;;;;;;;18.81;36.82;97424.00;10097759;29;20056;-57
2022/03/08 05:54:43;;;;;;;2.47;1.60;;;;;;;18.89;36.94;97429.47;10096573;29;20049;-57
2022/03/08 06:00:04;;;;;;;1.70;1.33;;;;;;;18.94;37.11;97437.47;10095068;29;20057;-57
2022/03/08 06:05:30;;;;;;;1.45;1.27;;;;;;;18.98;37.27;97442.25;10097290;29;20053;-56
2022/03/08 06:10:50;;;;;;;1.52;1.30;;;;;;;19.02;37.19;97438.63;10097596;29;20060;-57
2022/03/08 06:16:09;;;;;;;4.28;2.80;;;;;;;19.05;35.72;97429.94;10094751;29;20084;-58
2022/03/08 06:21:28;;;;;;;4.95;1.50;;;;;;;19.10;36.88;97448.72;10110418;29;20093;-58
2022/03/08 06:26:48;;;;;;;3.20;1.80;;;;;;;19.14;37.02;97436.19;10086063;29;20692;-58
2022/03/08 06:32:07;;;;;;;5.70;2.00;;;;;;;19.19;37.30;97443.41;10091952;29;20053;-58
2022/03/08 06:37:27;;;;;;;7.68;2.60;;;;;;;19.25;37.43;97449.44;10084951;29;20065;-58
2022/03/08 06:42:46;;;;;;;7.05;2.30;;;;;;;19.30;37.22;97450.13;10100473;29;20485;-58
2022/03/08 06:48:05;;;;;;;6.95;2.25;;;;;;;19.35;37.42;97451.94;10109101;29;20493;-58
2022/03/08 06:53:25;;;;;;;5.72;2.47;;;;;;;19.39;37.36;97458.31;10086698;29;20069;-58
2022/03/08 06:58:45;;;;;;;5.25;2.38;;;;;;;19.42;37.35;97459.59;10089129;29;20072;-58
2022/03/08 07:04:04;;;;;;;5.70;2.30;;;;;;;19.45;37.40;97461.69;10093197;29;20056;-58
2022/03/08 07:09:23;;;;;;;6.25;2.50;;;;;;;19.46;37.32;97447.84;10090470;29;20105;-58
2022/03/08 07:14:43;;;;;;;4.78;2.30;;;;;;;19.49;37.31;97465.38;10092240;29;20097;-58
2022/03/08 07:20:04;;;;;;;7.85;2.60;;;;;;;19.50;37.43;97465.09;10090298;29;20061;-58
2022/03/08 07:25:23;;;;;;;6.45;2.35;;;;;;;19.54;37.38;97465.25;10093863;29;20450;-57
2022/03/08 07:30:44;;;;;;;5.90;2.40;;;;;;;19.53;37.33;97464.44;10094788;29;20049;-58
2022/03/08 07:36:04;;;;;;;5.88;2.40;;;;;;;19.55;37.22;97473.06;10093372;29;20061;-58
2022/03/08 07:41:24;;;;;;;7.20;2.65;;;;;;;19.56;37.38;97473.84;10094144;29;20522;-57
2022/03/08 07:46:43;;;;;;;7.18;2.67;;;;;;;19.56;37.34;97482.75;10099112;29;20049;-58
2022/03/08 07:52:03;;;;;;;4.90;2.53;;;;;;;19.58;37.37;97476.25;10085292;29;20481;-58
2022/03/08 07:57:22;;;;;;;5.07;2.40;;;;;;;19.58;37.42;97481.66;10107888;29;20119;-58
2022/03/08 08:02:41;;;;;;;4.43;2.17;;;;;;;19.59;37.40;97484.03;10114753;29;20053;-58
2022/03/08 08:08:02;;;;;;;6.57;2.38;;;;;;;19.58;37.31;97477.03;10105150;29;20049;-58
2022/03/08 08:13:21;;;;;;;5.68;2.58;;;;;;;19.60;37.42;97476.72;10101221;29;20060;-58
2022/03/08 08:18:41;;;;;;;5.47;2.30;;;;;;;19.60;37.49;97477.56;10090717;29;20060;-58
2022/03/08 08:24:01;;;;;;;6.03;2.60;;;;;;;19.61;37.43;97481.03;10112787;29;20056;-58
2022/03/08 08:29:20;;;;;;;6.40;2.72;;;;;;;19.61;37.41;97483.75;10104351;29;20056;-58
2022/03/08 08:34:39;;;;;;;5.40;2.30;;;;;;;19.62;37.55;97488.03;10130951;29;20102;-58
2022/03/08 08:39:59;;;;;;;6.70;2.92;;;;;;;19.62;37.51;97485.31;10100574;29;20053;-58
2022/03/08 08:45:18;;;;;;;6.50;2.50;;;;;;;19.61;37.42;97483.75;10085816;29;20052;-57
2022/03/08 08:50:37;;;;;;;6.88;3.00;;;;;;;19.61;37.54;97476.44;10100389;29;20053;-58
2022/03/08 08:55:56;;;;;;;6.75;3.17;;;;;;;19.62;37.63;97482.63;10103098;29;20045;-58
2022/03/08 09:01:16;;;;;;;6.63;3.13;;;;;;;19.61;37.60;97473.72;10106550;29;20473;-58
2022/03/08 09:06:35;;;;;;;5.85;2.83;;;;;;;19.63;37.57;97484.25;10109206;29;20049;-58
2022/03/08 09:11:55;;;;;;;8.65;3.50;;;;;;;19.61;37.64;97476.44;10098386;29;20080;-58
2022/03/08 09:17:14;;;;;;;7.53;3.92;;;;;;;19.61;37.73;97476.44;10106144;29;20045;-58
2022/03/08 09:22:34;;;;;;;7.03;3.83;;;;;;;19.60;37.79;97480.25;10110881;29;20041;-58
2022/03/08 09:27:53;;;;;;;7.03;3.92;;;;;;;19.60;37.78;97474.03;10098912;29;20052;-57
2022/03/08 09:33:13;;;;;;;8.45;3.88;;;;;;;19.60;37.68;97484.84;10099158;29;20512;-57
2022/03/08 09:38:32;;;;;;;9.52;4.10;;;;;;;19.59;37.76;97472.44;10099349;29;20041;-58
2022/03/08 09:43:51;;;;;;;6.85;3.30;;;;;;;19.59;37.71;97472.44;10101268;29;20049;-57
2022/03/08 09:49:11;;;;;;;8.20;3.72;;;;;;;19.59;37.75;97472.44;10099653;29;20057;-58
2022/03/08 09:54:30;;;;;;;5.95;3.47;;;;;;;19.56;37.64;97474.66;10098648;29;20553;-58
2022/03/08 09:59:50;;;;;;;6.78;3.30;;;;;;;19.56;37.88;97465.72;10097645;29;20053;-58
2022/03/08 10:05:10;;;;;;;10.70;4.22;;;;;;;19.55;37.88;97472.25;10100941;29;20393;-57
2022/03/08 10:10:31;;;;;;;8.75;4.10;;;;;;;19.54;37.99;97470.66;10092090;29;20041;-57
2022/03/08 10:16:16;;;;;;;6.97;3.78;;;;;;;19.53;38.41;97474.47;10110858;29;20051;-58
2022/03/08 10:21:45;;;;;;;6.68;3.38;;;;;;;19.52;38.44;97468.28;10103480;29;20100;-57
2022/03/08 10:27:10;;;;;;;6.85;3.60;;;;;;;19.51;38.63;97461.25;10093990;29;20068;-57
2022/03/08 10:32:36;;;;;;;4.55;3.00;;;;;;;19.50;35.83;97465.09;10079518;29;20134;-57
2022/03/08 10:37:58;;;;;;;8.05;3.28;;;;;;;19.47;37.37;97471.09;10093857;29;20049;-57
2022/03/08 10:43:18;;;;;;;6.82;3.13;;;;;;;19.44;37.13;97460.88;10103509;29;20078;-58
2022/03/08 10:48:38;;;;;;;8.10;3.40;;;;;;;19.45;37.25;97461.69;10092745;29;20581;-57
2022/03/08 10:54:10;;;;;;;7.28;3.38;;;;;;;19.43;37.82;97455.81;10088165;29;20068;-58
2022/03/08 10:59:30;;;;;;;26.52;13.73;;;;;;;19.44;38.21;97447.38;10086020;29;20064;-58
2022/03/08 11:05:09;;;;;;;26.05;15.38;;;;;;;19.43;39.79;97442.28;10096202;29;20454;-57
2022/03/08 11:10:30;;;;;;;24.55;13.93;;;;;;;19.44;40.82;97444.66;10103299;29;20049;-58
2022/03/08 11:15:49;;;;;;;24.10;14.00;;;;;;;19.44;40.41;97441.97;10095025;29;20057;-57
2022/03/08 11:21:09;;;;;;;24.38;12.32;;;;;;;19.45;41.45;97448.19;10074843;29;20424;-57
2022/03/08 11:26:29;;;;;;;21.48;12.30;;;;;;;19.44;41.97;97433.84;10081454;29;20041;-57
2022/03/08 11:31:48;;;;;;;18.55;11.05;;;;;;;19.46;42.04;97426.25;10089993;29;20064;-57
2022/03/08 11:37:29;;;;;;;19.95;11.00;;;;;;;19.44;42.07;97438.47;10103934;29;20708;-57
2022/03/08 11:42:53;;;;;;;18.73;9.40;;;;;;;19.43;41.92;97426.88;10108937;29;20056;-57
2022/03/08 11:48:13;;;;;;;15.93;9.23;;;;;;;19.42;41.89;97430.66;10093725;29;20059;-58
2022/03/08 11:53:32;;;;;;;13.88;9.00;;;;;;;19.42;41.68;97424.47;10095920;29;20052;-57
2022/03/08 11:58:52;;;;;;;17.23;8.82;;;;;;;19.42;41.62;97432.56;10087551;29;20068;-57
2022/03/08 12:04:16;;;;;;;15.85;8.48;;;;;;;19.42;41.63;97438.78;10091596;29;20057;-57
2022/03/08 12:09:35;;;;;;;13.90;7.38;;;;;;;19.39;41.59;97436.69;10091627;29;20753;-57
2022/03/08 12:15:02;;;;;;;13.48;7.20;;;;;;;19.39;41.48;97442.09;10091969;29;20068;-57
2022/03/08 12:20:21;;;;;;;12.05;7.22;;;;;;;19.38;41.75;97443.19;10090462;29;20497;-57
2022/03/08 12:26:36;;;;;;;11.77;6.53;;;;;;;19.39;42.02;97452.13;10093319;29;20440;-57
2022/03/08 12:31:56;;;;;;;8.48;5.38;;;;;;;19.37;41.80;97436.22;10029487;29;20072;-57
2022/03/08 12:37:38;;;;;;;10.95;6.00;;;;;;;19.36;41.90;97419.19;10096968;29;20053;-57
2022/03/08 12:43:08;;;;;;;8.30;4.88;;;;;;;19.35;41.81;97408.72;10095229;29;20478;-57
2022/03/08 12:48:29;;;;;;;10.25;5.40;;;;;;;19.36;41.66;97410.28;10092679;29;20588;-57
2022/03/08 12:53:53;;;;;;;8.40;4.78;;;;;;;19.35;41.55;97403.31;10097693;29;20105;-57
2022/03/08 12:59:13;;;;;;;8.18;4.85;;;;;;;19.34;41.42;97399.00;10095257;29;20405;-57
2022/03/08 13:04:33;;;;;;;8.20;4.80;;;;;;;19.31;41.45;97392.31;10108480;29;20059;-56
2022/03/08 13:09:57;;;;;;;8.35;4.70;;;;;;;19.31;41.36;97392.31;10112525;29;20059;-57
2022/03/08 13:15:18;;;;;;;5.60;3.72;;;;;;;19.31;41.36;97380.72;10098108;29;20041;-57
2022/03/08 13:20:47;;;;;;;6.22;3.58;;;;;;;19.30;41.33;97385.28;10115020;29;20052;-57
2022/03/08 13:26:08;;;;;;;7.03;4.07;;;;;;;19.30;41.26;97379.09;10097637;29;20504;-57
2022/03/08 13:31:28;;;;;;;7.13;3.65;;;;;;;19.29;41.29;97358.63;10102219;29;20057;-57
2022/03/08 13:36:56;;;;;;;6.25;3.83;;;;;;;19.29;41.72;97355.91;10094446;29;20059;-56
2022/03/08 13:42:15;;;;;;;7.38;3.75;;;;;;;19.28;41.71;97357.00;10102445;29;20406;-57
2022/03/08 13:47:34;;;;;;;5.32;3.42;;;;;;;19.26;41.71;97372.72;10102596;29;20413;-57
2022/03/08 13:52:56;;;;;;;4.88;3.08;;;;;;;19.24;41.17;97372.25;10108491;29;20052;-57
2022/03/08 13:58:18;;;;;;;5.13;3.00;;;;;;;19.21;39.92;97376.34;10100547;29;20482;-56
2022/03/08 14:03:43;;;;;;;6.10;3.03;;;;;;;19.18;38.61;97376.97;10100747;29;20056;-56
2022/03/08 14:09:02;;;;;;;3.85;2.75;;;;;;;19.17;37.55;97372.69;10097324;29;20064;-57
2022/03/08 14:14:24;;;;;;;4.18;2.90;;;;;;;19.15;37.16;97370.28;10102316;29;20065;-56
2022/03/08 14:19:47;;;;;;;3.55;2.60;;;;;;;19.12;36.65;97362.78;10099531;29;20086;-56
2022/03/08 14:25:10;;;;;;;3.17;2.20;;;;;;;19.11;36.11;97371.19;10098527;29;20533;-56
2022/03/08 14:30:30;;;;;;;2.78;2.22;;;;;;;19.09;35.28;97358.00;10096175;29;20057;-56
2022/03/08 14:35:49;;;;;;;5.50;2.35;;;;;;;19.09;34.93;97352.59;10132109;29;20052;-57
2022/03/08 14:41:23;;;;;;;3.45;2.30;;;;;;;19.08;33.97;97356.41;10096445;29;20049;-57
2022/03/08 14:46:42;;;;;;;3.60;2.63;;;;;;;19.11;34.09;97349.56;10097045;29;20064;-56
2022/03/08 14:52:02;;;;;;;3.05;2.38;;;;;;;19.10;33.80;97348.78;10098067;29;20486;-56
2022/03/08 14:57:23;;;;;;;2.63;2.20;;;;;;;19.12;33.53;97351.97;10095534;29;20068;-56
2022/03/08 15:02:43;;;;;;;3.78;2.42;;;;;;;19.11;33.50;97338.78;10102310;29;20523;-57
2022/03/08 15:08:03;;;;;;;2.33;2.10;;;;;;;19.11;33.01;97341.47;10098782;29;20069;-57
2022/03/08 15:13:22;;;;;;;3.55;2.17;;;;;;;19.12;32.68;97343.88;10097300;29;20057;-57
2022/03/08 15:18:41;;;;;;;3.35;2.70;;;;;;;19.16;31.85;97347.56;10107083;29;20590;-57
2022/03/08 15:24:01;;;;;;;2.97;2.33;;;;;;;19.21;31.26;97351.22;10112005;29;20049;-57
2022/03/08 15:29:22;;;;;;;3.40;2.13;;;;;;;19.23;30.79;97351.72;10110489;29;20061;-56
2022/03/08 15:34:41;;;;;;;3.33;2.53;;;;;;;19.26;30.79;97346.50;10093564;29;20072;-56
2022/03/08 15:40:00;;;;;;;2.60;2.10;;;;;;;19.28;31.08;97336.19;10095092;29;20466;-57
2022/03/08 15:45:20;;;;;;;2.67;2.33;;;;;;;19.31;30.75;97334.78;10094808;29;20549;-56
2022/03/08 15:50:40;;;;;;;3.53;2.40;;;;;;;19.34;30.26;97350.38;10113711;29;20056;-57
2022/03/08 15:56:00;;;;;;;2.80;2.35;;;;;;;19.38;29.60;97358.66;10095055;29;20041;-57
2022/03/08 16:01:20;;;;;;;2.92;2.55;;;;;;;19.41;29.23;97344.53;10098969;29;20044;-57
2022/03/08 16:06:40;;;;;;;3.38;2.40;;;;;;;19.44;28.99;97342.00;10096707;29;20057;-56
2022/03/08 16:11:59;;;;;;;3.60;2.85;;;;;;;19.32;22.79;97344.47;10091555;29;20053;-57
2022/03/08 16:17:19;;;;;;;4.07;3.30;;;;;;;18.94;21.77;97350.28;10091278;29;20118;-56
2022/03/08 16:22:38;;;;;;;4.00;2.70;;;;;;;18.76;25.09;97350.09;10092579;29;20049;-55
2022/03/08 16:27:58;;;;;;;3.83;2.15;;;;;;;18.98;27.62;97353.94;10072925;29;20409;-56
2022/03/08 16:33:18;;;;;;;4.43;2.25;;;;;;;19.12;27.82;97360.06;10066205;29;20056;-57
2022/03/08 16:38:37;;;;;;;3.78;2.40;;;;;;;19.24;28.37;97356.03;10072250;29;20120;-57
2022/03/08 16:43:57;;;;;;;4.50;2.03;;;;;;;19.32;28.79;97363.38;10080575;29;20564;-58
2022/03/08 16:49:17;;;;;;;2.85;2.03;;;;;;;19.38;29.17;97369.47;10094165;29;20048;-57
2022/03/08 16:54:37;;;;;;;4.95;2.10;;;;;;;19.43;29.50;97378.25;10095206;29;20049;-58
2022/03/08 16:59:57;;;;;;;2.00;1.67;;;;;;;19.46;29.92;97383.00;10099882;29;20093;-57
2022/03/08 17:05:17;;;;;;;3.72;1.80;;;;;;;19.50;30.10;97384.00;10100705;29;20047;-57
2022/03/08 17:10:36;;;;;;;2.10;1.90;;;;;;;19.53;30.56;97394.19;10092521;29;20049;-57
2022/03/08 17:15:56;;;;;;;2.90;1.77;;;;;;;19.58;30.80;97395.16;10095680;29;20397;-57
2022/03/08 17:21:16;;;;;;;2.58;1.85;;;;;;;19.63;31.08;97397.75;10089858;29;20057;-57
2022/03/08 17:26:35;;;;;;;3.20;1.73;;;;;;;19.67;31.29;97404.13;10068043;29;20152;-57
2022/03/08 17:31:55;;;;;;;2.85;1.70;;;;;;;19.70;31.54;97419.72;10086918;29;20060;-57
2022/03/08 17:37:14;;;;;;;2.05;1.60;;;;;;;19.74;31.91;97426.16;10070538;29;20058;-57
2022/03/08 17:42:34;;;;;;;1.90;1.60;;;;;;;19.77;32.18;97424.72;10087493;29;20060;-56
2022/03/08 17:47:54;;;;;;;1.92;1.70;;;;;;;19.80;32.34;97434.91;10071018;29;20493;-57
2022/03/08 17:53:15;;;;;;;2.78;2.38;;;;;;;19.85;29.74;97416.63;10091415;29;20056;-56
2022/03/08 17:58:35;;;;;;;1.70;1.50;;;;;;;19.90;31.74;97426.53;10083849;29;20109;-57
2022/03/08 18:03:56;;;;;;;3.42;1.70;;;;;;;19.94;31.90;97435.63;10080369;29;20140;-59
2022/03/08 18:09:15;;;;;;;2.75;1.70;;;;;;;19.98;32.29;97436.59;10091726;29;20542;-58
2022/03/08 18:14:34;;;;;;;2.22;1.63;;;;;;;20.02;32.64;97436.78;10091164;29;20557;-56
2022/03/08 18:19:54;;;;;;;3.88;1.58;;;;;;;20.06;33.13;97443.94;10090976;29;20473;-55
2022/03/08 18:25:14;;;;;;;1.98;1.50;;;;;;;20.11;33.48;97453.81;10093945;29;20056;-51
2022/03/08 18:30:34;;;;;;;2.00;1.45;;;;;;;20.16;33.80;97453.69;10090829;29;20045;-50
2022/03/08 18:35:54;;;;;;;3.30;1.77;;;;;;;20.24;34.01;97458.34;10089738;29;20093;-54
2022/03/08 18:41:14;;;;;;;2.03;1.42;;;;;;;20.30;34.16;97465.19;10090119;29;20512;-54
2022/03/08 18:46:35;;;;;;;2.95;1.75;;;;;;;20.32;34.25;97454.84;10096381;29;20037;-54
2022/03/08 18:51:54;;;;;;;2.08;1.48;;;;;;;20.33;34.25;97456.47;10090046;29;20060;-53
2022/03/08 18:57:14;;;;;;;2.03;1.42;;;;;;;20.34;34.45;97460.75;10082733;29;20061;-52
2022/03/08 19:02:33;;;;;;;1.40;1.30;;;;;;;20.33;34.51;97459.16;10091573;29;20049;-53
2022/03/08 19:07:53;;;;;;;2.50;1.50;;;;;;;20.35;34.52;97456.16;10092505;29;20064;-54
2022/03/08 19:13:12;;;;;;;1.85;1.40;;;;;;;20.37;34.97;97461.25;10091547;29;20049;-53
2022/03/08 19:18:32;;;;;;;2.70;1.55;;;;;;;20.37;34.97;97461.25;10091561;29;20473;-54
2022/03/08 19:23:52;;;;;;;4.15;1.75;;;;;;;20.39;35.54;97464.44;10078018;29;20049;-52
2022/03/08 19:29:11;;;;;;;5.60;1.65;;;;;;;20.41;35.79;97464.94;10078468;29;20072;-55
2022/03/08 19:34:31;;;;;;;5.25;1.80;;;;;;;20.41;35.83;97464.94;10108616;29;20100;-56
2022/03/08 19:39:52;;;;;;;4.38;1.90;;;;;;;20.43;36.00;97468.13;10084019;29;20053;-54
2022/03/08 19:45:12;;;;;;;3.78;1.77;;;;;;;20.43;36.25;97463.50;10077387;29;20053;-53
2022/03/08 19:50:32;;;;;;;5.55;1.83;;;;;;;20.44;36.38;97464.28;10090730;29;20048;-50
2022/03/08 19:55:52;;;;;;;4.18;1.90;;;;;;;20.43;36.45;97458.09;10088516;29;20053;-50
2022/03/08 20:01:11;;;;;;;5.10;2.10;;;;;;;20.42;36.48;97453.78;10090843;29;20056;-49
2022/03/08 20:06:31;;;;;;;4.75;2.00;;;;;;;20.43;36.62;97451.88;10089800;29;20052;-54
2022/03/08 20:11:51;;;;;;;5.82;1.98;;;;;;;20.41;36.60;97449.50;10084402;29;20053;-53
2022/03/08 20:17:11;;;;;;;4.43;1.80;;;;;;;20.40;36.71;97457.91;10089981;29;20405;-55
2022/03/08 20:22:32;;;;;;;4.05;1.60;;;;;;;20.40;36.86;97461.41;10098677;29;20051;-53
2022/03/08 20:27:51;;;;;;;5.55;1.92;;;;;;;20.39;36.80;97462.53;10100696;29;20041;-55
2022/03/08 20:33:11;;;;;;;4.13;1.70;;;;;;;20.40;36.82;97460.63;10096644;29;20408;-54
2022/03/08 20:38:30;;;;;;;5.13;1.80;;;;;;;20.39;36.69;97450.91;10098542;29;20045;-53
2022/03/08 20:43:50;;;;;;;3.72;1.83;;;;;;;20.40;36.75;97457.91;10098181;29;20048;-54
2022/03/08 20:49:09;;;;;;;6.30;1.80;;;;;;;20.38;36.77;97452.03;10097567;29;20056;-53
2022/03/08 20:54:29;;;;;;;5.18;1.90;;;;;;;20.36;35.77;97457.75;10092383;29;20044;-55
2022/03/08 20:59:48;;;;;;;5.15;2.03;;;;;;;20.35;36.40;97462.38;10067165;29;20057;-55
2022/03/08 21:05:08;;;;;;;3.88;1.95;;;;;;;20.35;36.50;97469.69;10083043;29;20098;-55
2022/03/08 21:10:28;;;;;;;4.80;1.88;;;;;;;20.34;36.65;97465.38;10075950;29;20060;-55
2022/03/08 21:15:47;;;;;;;5.43;2.10;;;;;;;20.34;36.45;97465.38;10091125;29;20061;-55
2022/03/08 21:21:07;;;;;;;4.43;2.20;;;;;;;20.32;36.76;97467.59;10081454;29;20076;-55
2022/03/08 21:26:27;;;;;;;3.65;2.10;;;;;;;20.31;36.67;97461.41;10073992;29;20080;-54
2022/03/08 21:31:46;;;;;;;5.00;2.00;;;;;;;20.29;36.83;97463.63;10065451;29;20049;-56
2022/03/08 21:37:06;;;;;;;4.45;1.90;;;;;;;20.29;36.83;97468.25;10072413;29;20049;-55
2022/03/08 21:42:25;;;;;;;4.43;2.20;;;;;;;20.29;36.93;97462.81;10071912;29;20052;-55
2022/03/08 21:47:45;;;;;;;4.43;2.00;;;;;;;20.27;37.00;97460.44;10077845;29;20116;-57
2022/03/08 21:53:06;;;;;;;3.75;1.95;;;;;;;20.28;36.72;97472.84;10091720;29;20044;-56
2022/03/08 21:58:26;;;;;;;5.53;2.13;;;;;;;20.28;36.75;97472.03;10092787;29;20068;-56
2022/03/08 22:03:45;;;;;;;6.28;1.80;;;;;;;20.27;36.67;97476.66;10093253;29;20538;-56
2022/03/08 22:09:05;;;;;;;5.70;2.00;;;;;;;20.26;36.72;97475.06;10093499;29;20082;-57
2022/03/08 22:14:25;;;;;;;4.53;2.10;;;;;;;20.25;36.58;97478.88;10094808;29;20727;-57
2022/03/08 22:19:47;;;;;;;6.20;1.85;;;;;;;20.23;36.54;97486.50;10097144;29;20422;-56
2022/03/08 22:25:07;;;;;;;3.78;1.90;;;;;;;20.22;36.52;97484.91;10094586;29;20064;-56
2022/03/08 22:30:27;;;;;;;6.13;1.90;;;;;;;20.22;36.54;97473.28;10095990;29;20065;-57
2022/03/08 22:35:46;;;;;;;3.85;1.60;;;;;;;20.20;36.64;97479.00;10091528;29;20508;-57
2022/03/08 22:41:06;;;;;;;5.22;2.10;;;;;;;20.20;36.48;97475.50;10086907;29;20045;-56
2022/03/08 22:46:27;;;;;;;4.53;2.00;;;;;;;20.18;36.59;97483.94;10089995;29;20060;-57
2022/03/08 22:51:49;;;;;;;4.47;2.00;;;;;;;20.16;36.37;97491.56;10092989;29;20306;-57
2022/03/08 22:57:09;;;;;;;3.75;1.83;;;;;;;20.14;36.49;97491.88;10094056;29;20505;-56
2022/03/08 23:02:28;;;;;;;2.45;1.60;;;;;;;20.11;36.50;97475.47;10095647;29;20056;-56
2022/03/08 23:07:47;;;;;;;4.95;2.10;;;;;;;20.10;36.55;97482.00;10099926;29;20052;-56
2022/03/08 23:13:08;;;;;;;3.40;1.80;;;;;;;20.07;36.35;97472.59;10095384;29;20053;-56
2022/03/08 23:18:28;;;;;;;3.95;2.13;;;;;;;20.06;36.79;97486.44;10107939;29;20532;-56
2022/03/08 23:23:47;;;;;;;3.88;2.15;;;;;;;20.04;36.35;97494.84;10097036;29;20053;-56
2022/03/08 23:29:07;;;;;;;4.35;1.75;;;;;;;20.03;36.37;97503.25;10093437;29;20394;-56
2022/03/08 23:34:26;;;;;;;3.30;2.03;;;;;;;20.03;36.59;97505.97;10093285;29;20079;-56
2022/03/08 23:39:46;;;;;;;2.45;1.90;;;;;;;19.99;36.41;97505.78;10094436;29;20370;-57
2022/03/08 23:45:06;;;;;;;2.45;1.75;;;;;;;19.99;36.33;97505.78;10106345;29;20498;-56
2022/03/08 23:50:26;;;;;;;2.67;1.77;;;;;;;19.97;36.46;97493.69;10088580;29;20438;-57
2022/03/08 23:55:45;;;;;;;3.03;1.75;;;;;;;19.95;36.56;97507.50;10098126;29;20624;-56
